No particular awareness of the weather is required.    There are no Weather-warnings


Meteo18 Weather Cam more information Meteo18 Weather Cam


Thunder radar more information blitzortung!


Rain radar more information rain snow radar


Visit our other weather sites:

Template documentation
and downloads

And another site



Weather Underground History page Text

Daily Summary for February 10, 2017 Units:  Both    English   Metric
« Previous Day
Next Day »
Daily Weekly Monthly Yearly Custom
  High: Low: Average:
Temperature: 40.5 °F /  4.7 °C 30.6 °F /  -0.8 °C 35.1 °F /  1.7 °C
Dew Point: 35.6 °F /  2.0 °C 28 °F /  -2.2 °C 31.8 °F /  -0.1 °C
Humidity: 92 % 81 % 88 %
Wind Speed: 8 mph /  12.9 km/h - 2.5 mph /  4.1 km/h
Wind Gust: 10 mph /  16.1 km/h - -
Wind:- - South
Pressure: 30.1 in /  1018.8 hPa 30 in /  1016.8 hPa -
Precipitation: 0 in /  0.0 mm    
Historical Graphs
 
 
Tabular Data for February 10, 2017
Time Temperature Dew Point Pressure Wind Wind Speed Wind Gust Humidity Rainfall Rate (Hourly)
00:07 32.5 °F /  0.3 °C 29.7 °F /  -1.3 °C 30.1 in /  1018.8 hPa Calm   4 mph /  6.4 km/h 89 % 0 in /  0.0 mm
00:12 32.4 °F /  0.2 °C 29.5 °F /  -1.4 °C 30.1 in /  1018.8 hPa Calm   1 mph /  1.6 km/h 89 % 0 in /  0.0 mm
00:17 32.4 °F /  0.2 °C 29.5 °F /  -1.4 °C 30.1 in /  1018.8 hPa Calm   1 mph /  1.6 km/h 89 % 0 in /  0.0 mm
00:22 32.4 °F /  0.2 °C 29.5 °F /  -1.4 °C 30.1 in /  1018.8 hPa Calm   1 mph /  1.6 km/h 89 % 0 in /  0.0 mm
00:27 32.5 °F /  0.3 °C 29.7 °F /  -1.3 °C 30.1 in /  1018.8 hPa NNW 1 mph /  1.6 km/h 2 mph /  3.2 km/h 89 % 0 in /  0.0 mm
00:32 32.5 °F /  0.3 °C 29.7 °F /  -1.3 °C 30.1 in /  1018.8 hPa NNW 1 mph /  1.6 km/h 2 mph /  3.2 km/h 89 % 0 in /  0.0 mm
00:42 32.7 °F /  0.4 °C 29.5 °F /  -1.4 °C 30.1 in /  1018.8 hPa NNW 1 mph /  1.6 km/h 4 mph /  6.4 km/h 88 % 0 in /  0.0 mm
00:57 33.1 °F /  0.6 °C 29.8 °F /  -1.2 °C 30.1 in /  1018.8 hPa NNW 4 mph /  6.4 km/h 5 mph /  8.0 km/h 88 % 0 in /  0.0 mm
01:02 33.1 °F /  0.6 °C 29.7 °F /  -1.3 °C 30.1 in /  1018.8 hPa North 2 mph /  3.2 km/h 5 mph /  8.0 km/h 87 % 0 in /  0.0 mm
01:17 33.1 °F /  0.6 °C 29.7 °F /  -1.3 °C 30.1 in /  1018.8 hPa North 3 mph /  4.8 km/h 5 mph /  8.0 km/h 87 % 0 in /  0.0 mm
01:27 33.1 °F /  0.6 °C 29.8 °F /  -1.2 °C 30.1 in /  1018.8 hPa North 1 mph /  1.6 km/h 5 mph /  8.0 km/h 88 % 0 in /  0.0 mm
01:32 33.1 °F /  0.6 °C 29.8 °F /  -1.2 °C 30.1 in /  1018.8 hPa North 2 mph /  3.2 km/h 5 mph /  8.0 km/h 88 % 0 in /  0.0 mm
01:37 33.1 °F /  0.6 °C 29.7 °F /  -1.3 °C 30.1 in /  1018.5 hPa North 1 mph /  1.6 km/h 4 mph /  6.4 km/h 87 % 0 in /  0.0 mm
02:02 33.1 °F /  0.6 °C 29.7 °F /  -1.3 °C 30.1 in /  1018.5 hPa Calm   5 mph /  8.0 km/h 87 % 0 in /  0.0 mm
02:07 32.9 °F /  0.5 °C 29.7 °F /  -1.3 °C 30.1 in /  1018.5 hPa NE 3 mph /  4.8 km/h 5 mph /  8.0 km/h 88 % 0 in /  0.0 mm
02:22 32.7 °F /  0.4 °C 29.3 °F /  -1.5 °C 30.1 in /  1018.2 hPa NE 1 mph /  1.6 km/h 5 mph /  8.0 km/h 87 % 0 in /  0.0 mm
02:27 32.7 °F /  0.4 °C 29.3 °F /  -1.5 °C 30.1 in /  1018.2 hPa NNW 3 mph /  4.8 km/h 5 mph /  8.0 km/h 87 % 0 in /  0.0 mm
02:37 32.7 °F /  0.4 °C 29.3 °F /  -1.5 °C 30.1 in /  1018.2 hPa NNE 3 mph /  4.8 km/h 5 mph /  8.0 km/h 87 % 0 in /  0.0 mm
02:47 32.5 °F /  0.3 °C 29.3 °F /  -1.5 °C 30.1 in /  1018.2 hPa NNE 3 mph /  4.8 km/h 6 mph /  9.7 km/h 88 % 0 in /  0.0 mm
02:52 32.5 °F /  0.3 °C 29.3 °F /  -1.5 °C 30.1 in /  1018.2 hPa NE 1 mph /  1.6 km/h 7 mph /  11.3 km/h 88 % 0 in /  0.0 mm
02:57 32.5 °F /  0.3 °C 29.3 °F /  -1.5 °C 30.1 in /  1018.2 hPa NE 7 mph /  11.3 km/h 7 mph /  11.3 km/h 88 % 0 in /  0.0 mm
03:02 32.5 °F /  0.3 °C 29.3 °F /  -1.5 °C 30.1 in /  1018.2 hPa NE 2 mph /  3.2 km/h 8 mph /  12.9 km/h 88 % 0 in /  0.0 mm
03:07 32.4 °F /  0.2 °C 29.1 °F /  -1.6 °C 30.1 in /  1018.2 hPa North 3 mph /  4.8 km/h 8 mph /  12.9 km/h 88 % 0 in /  0.0 mm
03:12 32.4 °F /  0.2 °C 29.1 °F /  -1.6 °C 30.1 in /  1017.8 hPa North 4 mph /  6.4 km/h 8 mph /  12.9 km/h 88 % 0 in /  0.0 mm
03:17 32.4 °F /  0.2 °C 29.1 °F /  -1.6 °C 30.1 in /  1017.8 hPa NNE 3 mph /  4.8 km/h 7 mph /  11.3 km/h 88 % 0 in /  0.0 mm
03:22 32.2 °F /  0.1 °C 28.9 °F /  -1.7 °C 30.1 in /  1017.8 hPa North 2 mph /  3.2 km/h 6 mph /  9.7 km/h 88 % 0 in /  0.0 mm
03:27 32.2 °F /  0.1 °C 29.3 °F /  -1.5 °C 30.1 in /  1017.8 hPa North 1 mph /  1.6 km/h 6 mph /  9.7 km/h 89 % 0 in /  0.0 mm
03:32 32 °F /  0.0 °C 29.1 °F /  -1.6 °C 30.1 in /  1017.8 hPa NNW 4 mph /  6.4 km/h 6 mph /  9.7 km/h 89 % 0 in /  0.0 mm
03:37 32 °F /  0.0 °C 29.1 °F /  -1.6 °C 30.1 in /  1017.8 hPa North 2 mph /  3.2 km/h 8 mph /  12.9 km/h 89 % 0 in /  0.0 mm
03:42 31.8 °F /  -0.1 °C 28.9 °F /  -1.7 °C 30.1 in /  1017.8 hPa North 1 mph /  1.6 km/h 8 mph /  12.9 km/h 89 % 0 in /  0.0 mm
03:47 31.6 °F /  -0.2 °C 28.8 °F /  -1.8 °C 30.1 in /  1017.5 hPa Calm   8 mph /  12.9 km/h 89 % 0 in /  0.0 mm
03:52 31.6 °F /  -0.2 °C 29.1 °F /  -1.6 °C 30.1 in /  1017.8 hPa North 2 mph /  3.2 km/h 5 mph /  8.0 km/h 90 % 0 in /  0.0 mm
03:57 31.5 °F /  -0.3 °C 28.9 °F /  -1.7 °C 30.1 in /  1017.5 hPa North 2 mph /  3.2 km/h 5 mph /  8.0 km/h 90 % 0 in /  0.0 mm
04:02 31.5 °F /  -0.3 °C 28.9 °F /  -1.7 °C 30.1 in /  1017.5 hPa North 2 mph /  3.2 km/h 5 mph /  8.0 km/h 90 % 0 in /  0.0 mm
04:07 31.3 °F /  -0.4 °C 28.8 °F /  -1.8 °C 30.1 in /  1017.5 hPa NNE 1 mph /  1.6 km/h 5 mph /  8.0 km/h 90 % 0 in /  0.0 mm
04:12 31.1 °F /  -0.5 °C 28.6 °F /  -1.9 °C 30.1 in /  1017.5 hPa Calm   5 mph /  8.0 km/h 90 % 0 in /  0.0 mm
04:17 30.9 °F /  -0.6 °C 28.4 °F /  -2.0 °C 30.1 in /  1017.5 hPa North 2 mph /  3.2 km/h 4 mph /  6.4 km/h 90 % 0 in /  0.0 mm
04:22 30.9 °F /  -0.6 °C 28.4 °F /  -2.0 °C 30.1 in /  1017.5 hPa North 3 mph /  4.8 km/h 5 mph /  8.0 km/h 90 % 0 in /  0.0 mm
04:27 30.9 °F /  -0.6 °C 28.4 °F /  -2.0 °C 30.1 in /  1017.5 hPa North 1 mph /  1.6 km/h 5 mph /  8.0 km/h 90 % 0 in /  0.0 mm
04:32 30.9 °F /  -0.6 °C 28.4 °F /  -2.0 °C 30.1 in /  1017.5 hPa North 1 mph /  1.6 km/h 5 mph /  8.0 km/h 90 % 0 in /  0.0 mm
04:37 30.7 °F /  -0.7 °C 28.2 °F /  -2.1 °C 30 in /  1017.2 hPa NNE 2 mph /  3.2 km/h 5 mph /  8.0 km/h 90 % 0 in /  0.0 mm
04:42 30.7 °F /  -0.7 °C 28.2 °F /  -2.1 °C 30 in /  1017.2 hPa Calm   4 mph /  6.4 km/h 90 % 0 in /  0.0 mm
04:47 30.6 °F /  -0.8 °C 28 °F /  -2.2 °C 30.1 in /  1017.5 hPa NNW 1 mph /  1.6 km/h 4 mph /  6.4 km/h 90 % 0 in /  0.0 mm
04:52 30.6 °F /  -0.8 °C 28.2 °F /  -2.1 °C 30.1 in /  1017.5 hPa Calm   4 mph /  6.4 km/h 91 % 0 in /  0.0 mm
04:57 30.6 °F /  -0.8 °C 28.2 °F /  -2.1 °C 30.1 in /  1017.5 hPa Calm   7 mph /  11.3 km/h 91 % 0 in /  0.0 mm
05:02 30.7 °F /  -0.7 °C 28.2 °F /  -2.1 °C 30.1 in /  1017.5 hPa Calm   7 mph /  11.3 km/h 90 % 0 in /  0.0 mm
05:07 30.6 °F /  -0.8 °C 28 °F /  -2.2 °C 30.1 in /  1017.5 hPa North 1 mph /  1.6 km/h 7 mph /  11.3 km/h 90 % 0 in /  0.0 mm
05:12 30.6 °F /  -0.8 °C 28 °F /  -2.2 °C 30.1 in /  1017.5 hPa NE 2 mph /  3.2 km/h 7 mph /  11.3 km/h 90 % 0 in /  0.0 mm
05:17 30.7 °F /  -0.7 °C 28.4 °F /  -2.0 °C 30.1 in /  1017.5 hPa NNE 1 mph /  1.6 km/h 4 mph /  6.4 km/h 91 % 0 in /  0.0 mm
05:22 30.7 °F /  -0.7 °C 28.4 °F /  -2.0 °C 30.1 in /  1017.5 hPa NNW 1 mph /  1.6 km/h 3 mph /  4.8 km/h 91 % 0 in /  0.0 mm
05:27 30.9 °F /  -0.6 °C 28.4 °F /  -2.0 °C 30.1 in /  1017.5 hPa NNE 1 mph /  1.6 km/h 2 mph /  3.2 km/h 90 % 0 in /  0.0 mm
05:32 30.9 °F /  -0.6 °C 28.4 °F /  -2.0 °C 30.1 in /  1017.5 hPa Calm   2 mph /  3.2 km/h 90 % 0 in /  0.0 mm
05:37 30.9 °F /  -0.6 °C 28.4 °F /  -2.0 °C 30.1 in /  1017.5 hPa NNW 1 mph /  1.6 km/h 3 mph /  4.8 km/h 90 % 0 in /  0.0 mm
05:42 31.3 °F /  -0.4 °C 28.8 °F /  -1.8 °C 30.1 in /  1017.5 hPa North 1 mph /  1.6 km/h 3 mph /  4.8 km/h 90 % 0 in /  0.0 mm
05:47 31.3 °F /  -0.4 °C 28.8 °F /  -1.8 °C 30.1 in /  1017.5 hPa Calm   4 mph /  6.4 km/h 90 % 0 in /  0.0 mm
05:52 31.5 °F /  -0.3 °C 28.9 °F /  -1.7 °C 30.1 in /  1017.5 hPa Calm   4 mph /  6.4 km/h 90 % 0 in /  0.0 mm
05:57 31.5 °F /  -0.3 °C 28.9 °F /  -1.7 °C 30.1 in /  1017.5 hPa NNW 1 mph /  1.6 km/h 3 mph /  4.8 km/h 90 % 0 in /  0.0 mm
06:02 31.6 °F /  -0.2 °C 29.1 °F /  -1.6 °C 30.1 in /  1017.5 hPa NNE 1 mph /  1.6 km/h 3 mph /  4.8 km/h 90 % 0 in /  0.0 mm
06:07 31.6 °F /  -0.2 °C 28.8 °F /  -1.8 °C 30.1 in /  1017.5 hPa NNW 1 mph /  1.6 km/h 3 mph /  4.8 km/h 89 % 0 in /  0.0 mm
06:12 31.6 °F /  -0.2 °C 28.8 °F /  -1.8 °C 30.1 in /  1017.5 hPa North 2 mph /  3.2 km/h 3 mph /  4.8 km/h 89 % 0 in /  0.0 mm
06:17 31.6 °F /  -0.2 °C 28.8 °F /  -1.8 °C 30.1 in /  1017.5 hPa Calm   3 mph /  4.8 km/h 89 % 0 in /  0.0 mm
06:22 31.8 °F /  -0.1 °C 28.9 °F /  -1.7 °C 30.1 in /  1017.5 hPa NE 1 mph /  1.6 km/h 3 mph /  4.8 km/h 89 % 0 in /  0.0 mm
06:27 31.8 °F /  -0.1 °C 28.9 °F /  -1.7 °C 30.1 in /  1017.5 hPa Calm   3 mph /  4.8 km/h 89 % 0 in /  0.0 mm
06:32 31.8 °F /  -0.1 °C 28.9 °F /  -1.7 °C 30.1 in /  1017.5 hPa NE 2 mph /  3.2 km/h 5 mph /  8.0 km/h 89 % 0 in /  0.0 mm
06:37 31.8 °F /  -0.1 °C 28.9 °F /  -1.7 °C 30.1 in /  1017.5 hPa NNE 1 mph /  1.6 km/h 5 mph /  8.0 km/h 89 % 0 in /  0.0 mm
06:42 31.8 °F /  -0.1 °C 28.9 °F /  -1.7 °C 30 in /  1017.2 hPa NNW 2 mph /  3.2 km/h 5 mph /  8.0 km/h 89 % 0 in /  0.0 mm
06:47 31.8 °F /  -0.1 °C 28.9 °F /  -1.7 °C 30 in /  1017.2 hPa NE 4 mph /  6.4 km/h 5 mph /  8.0 km/h 89 % 0 in /  0.0 mm
06:52 31.8 °F /  -0.1 °C 28.9 °F /  -1.7 °C 30 in /  1017.2 hPa NNE 2 mph /  3.2 km/h 5 mph /  8.0 km/h 89 % 0 in /  0.0 mm
06:57 31.8 °F /  -0.1 °C 28.9 °F /  -1.7 °C 30 in /  1017.2 hPa North 1 mph /  1.6 km/h 6 mph /  9.7 km/h 89 % 0 in /  0.0 mm
07:02 31.8 °F /  -0.1 °C 28.9 °F /  -1.7 °C 30 in /  1017.2 hPa NE 1 mph /  1.6 km/h 6 mph /  9.7 km/h 89 % 0 in /  0.0 mm
07:12 31.6 °F /  -0.2 °C 28.8 °F /  -1.8 °C 30 in /  1017.2 hPa Calm   7 mph /  11.3 km/h 89 % 0 in /  0.0 mm
07:17 31.6 °F /  -0.2 °C 28.8 °F /  -1.8 °C 30 in /  1017.2 hPa North 2 mph /  3.2 km/h 8 mph /  12.9 km/h 89 % 0 in /  0.0 mm
07:22 31.6 °F /  -0.2 °C 28.8 °F /  -1.8 °C 30 in /  1017.2 hPa NW 1 mph /  1.6 km/h 8 mph /  12.9 km/h 89 % 0 in /  0.0 mm
07:27 31.6 °F /  -0.2 °C 28.8 °F /  -1.8 °C 30 in /  1017.2 hPa NE 3 mph /  4.8 km/h 7 mph /  11.3 km/h 89 % 0 in /  0.0 mm
07:32 31.6 °F /  -0.2 °C 28.8 °F /  -1.8 °C 30 in /  1017.2 hPa NNW 4 mph /  6.4 km/h 7 mph /  11.3 km/h 89 % 0 in /  0.0 mm
07:37 31.6 °F /  -0.2 °C 28.8 °F /  -1.8 °C 30 in /  1017.2 hPa NNW 2 mph /  3.2 km/h 7 mph /  11.3 km/h 89 % 0 in /  0.0 mm
07:42 31.6 °F /  -0.2 °C 28.8 °F /  -1.8 °C 30 in /  1017.2 hPa NE 2 mph /  3.2 km/h 7 mph /  11.3 km/h 89 % 0 in /  0.0 mm
07:47 31.6 °F /  -0.2 °C 28.8 °F /  -1.8 °C 30 in /  1017.2 hPa NNW 2 mph /  3.2 km/h 5 mph /  8.0 km/h 89 % 0 in /  0.0 mm
07:57 31.6 °F /  -0.2 °C 28.8 °F /  -1.8 °C 30 in /  1017.2 hPa NNE 3 mph /  4.8 km/h 8 mph /  12.9 km/h 89 % 0 in /  0.0 mm
08:02 31.6 °F /  -0.2 °C 28.8 °F /  -1.8 °C 30.1 in /  1017.5 hPa NNE 1 mph /  1.6 km/h 8 mph /  12.9 km/h 89 % 0 in /  0.0 mm
08:07 31.6 °F /  -0.2 °C 28.8 °F /  -1.8 °C 30.1 in /  1017.5 hPa North 4 mph /  6.4 km/h 6 mph /  9.7 km/h 89 % 0 in /  0.0 mm
08:12 31.8 °F /  -0.1 °C 28.9 °F /  -1.7 °C 30.1 in /  1017.5 hPa NE 3 mph /  4.8 km/h 6 mph /  9.7 km/h 89 % 0 in /  0.0 mm
08:17 31.8 °F /  -0.1 °C 28.9 °F /  -1.7 °C 30.1 in /  1017.5 hPa NE 5 mph /  8.0 km/h 6 mph /  9.7 km/h 89 % 0 in /  0.0 mm
08:22 31.8 °F /  -0.1 °C 28.9 °F /  -1.7 °C 30.1 in /  1017.5 hPa NNE 3 mph /  4.8 km/h 6 mph /  9.7 km/h 89 % 0 in /  0.0 mm
08:27 31.8 °F /  -0.1 °C 28.9 °F /  -1.7 °C 30.1 in /  1017.5 hPa NE 4 mph /  6.4 km/h 8 mph /  12.9 km/h 89 % 0 in /  0.0 mm
08:32 31.6 °F /  -0.2 °C 28.8 °F /  -1.8 °C 30.1 in /  1017.5 hPa NNE 6 mph /  9.7 km/h 8 mph /  12.9 km/h 89 % 0 in /  0.0 mm
08:37 31.6 °F /  -0.2 °C 28.8 °F /  -1.8 °C 30.1 in /  1017.5 hPa NE 4 mph /  6.4 km/h 8 mph /  12.9 km/h 89 % 0 in /  0.0 mm
08:42 31.6 °F /  -0.2 °C 28.8 °F /  -1.8 °C 30.1 in /  1017.8 hPa Calm   8 mph /  12.9 km/h 89 % 0 in /  0.0 mm
08:47 31.8 °F /  -0.1 °C 29.3 °F /  -1.5 °C 30.1 in /  1017.8 hPa North 1 mph /  1.6 km/h 8 mph /  12.9 km/h 90 % 0 in /  0.0 mm
08:57 31.8 °F /  -0.1 °C 29.3 °F /  -1.5 °C 30.1 in /  1017.8 hPa NNE 2 mph /  3.2 km/h 7 mph /  11.3 km/h 90 % 0 in /  0.0 mm
09:02 31.8 °F /  -0.1 °C 29.3 °F /  -1.5 °C 30.1 in /  1017.8 hPa NNW 3 mph /  4.8 km/h 7 mph /  11.3 km/h 90 % 0 in /  0.0 mm
09:07 31.8 °F /  -0.1 °C 29.3 °F /  -1.5 °C 30.1 in /  1017.5 hPa NE 4 mph /  6.4 km/h 7 mph /  11.3 km/h 90 % 0 in /  0.0 mm
09:12 31.8 °F /  -0.1 °C 29.3 °F /  -1.5 °C 30.1 in /  1017.8 hPa NNE 7 mph /  11.3 km/h 7 mph /  11.3 km/h 90 % 0 in /  0.0 mm
09:17 31.8 °F /  -0.1 °C 29.3 °F /  -1.5 °C 30.1 in /  1017.8 hPa NNE 1 mph /  1.6 km/h 10 mph /  16.1 km/h 90 % 0 in /  0.0 mm
09:27 32 °F /  0.0 °C 29.5 °F /  -1.4 °C 30.1 in /  1017.5 hPa NNW 6 mph /  9.7 km/h 8 mph /  12.9 km/h 90 % 0 in /  0.0 mm
09:32 32 °F /  0.0 °C 29.5 °F /  -1.4 °C 30.1 in /  1017.5 hPa NNE 2 mph /  3.2 km/h 8 mph /  12.9 km/h 90 % 0 in /  0.0 mm
09:37 32.2 °F /  0.1 °C 29.7 °F /  -1.3 °C 30.1 in /  1017.5 hPa NW 4 mph /  6.4 km/h 8 mph /  12.9 km/h 90 % 0 in /  0.0 mm
09:42 32.2 °F /  0.1 °C 29.7 °F /  -1.3 °C 30.1 in /  1017.8 hPa NE 2 mph /  3.2 km/h 8 mph /  12.9 km/h 90 % 0 in /  0.0 mm
09:47 32.4 °F /  0.2 °C 29.8 °F /  -1.2 °C 30.1 in /  1017.8 hPa NNE 1 mph /  1.6 km/h 7 mph /  11.3 km/h 90 % 0 in /  0.0 mm
09:52 32.4 °F /  0.2 °C 29.8 °F /  -1.2 °C 30.1 in /  1017.8 hPa NNE 2 mph /  3.2 km/h 7 mph /  11.3 km/h 90 % 0 in /  0.0 mm
09:57 32.4 °F /  0.2 °C 29.8 °F /  -1.2 °C 30.1 in /  1017.8 hPa NE 5 mph /  8.0 km/h 7 mph /  11.3 km/h 90 % 0 in /  0.0 mm
10:02 32.5 °F /  0.3 °C 30 °F /  -1.1 °C 30.1 in /  1017.8 hPa NNE 4 mph /  6.4 km/h 7 mph /  11.3 km/h 90 % 0 in /  0.0 mm
10:07 32.7 °F /  0.4 °C 30.2 °F /  -1.0 °C 30.1 in /  1017.8 hPa NNE 2 mph /  3.2 km/h 7 mph /  11.3 km/h 90 % 0 in /  0.0 mm
10:12 32.7 °F /  0.4 °C 30.2 °F /  -1.0 °C 30.1 in /  1017.8 hPa NNW 1 mph /  1.6 km/h 7 mph /  11.3 km/h 90 % 0 in /  0.0 mm
10:17 33.1 °F /  0.6 °C 30.4 °F /  -0.9 °C 30.1 in /  1017.8 hPa North 1 mph /  1.6 km/h 7 mph /  11.3 km/h 90 % 0 in /  0.0 mm
10:22 33.3 °F /  0.7 °C 30.4 °F /  -0.9 °C 30.1 in /  1017.8 hPa Calm   4 mph /  6.4 km/h 89 % 0 in /  0.0 mm
10:27 33.3 °F /  0.7 °C 30.4 °F /  -0.9 °C 30.1 in /  1017.8 hPa Calm   4 mph /  6.4 km/h 89 % 0 in /  0.0 mm
10:32 33.4 °F /  0.8 °C 30.6 °F /  -0.8 °C 30.1 in /  1017.8 hPa North 1 mph /  1.6 km/h 2 mph /  3.2 km/h 89 % 0 in /  0.0 mm
10:37 33.4 °F /  0.8 °C 30.6 °F /  -0.8 °C 30.1 in /  1017.8 hPa Calm   2 mph /  3.2 km/h 89 % 0 in /  0.0 mm
10:42 33.6 °F /  0.9 °C 30.7 °F /  -0.7 °C 30.1 in /  1017.8 hPa NNE 2 mph /  3.2 km/h 2 mph /  3.2 km/h 89 % 0 in /  0.0 mm
10:47 33.8 °F /  1.0 °C 30.6 °F /  -0.8 °C 30.1 in /  1017.8 hPa Calm   3 mph /  4.8 km/h 88 % 0 in /  0.0 mm
10:52 34.2 °F /  1.2 °C 31.3 °F /  -0.4 °C 30.1 in /  1017.8 hPa NNW 1 mph /  1.6 km/h 3 mph /  4.8 km/h 89 % 0 in /  0.0 mm
10:57 34.3 °F /  1.3 °C 31.1 °F /  -0.5 °C 30.1 in /  1017.8 hPa North 1 mph /  1.6 km/h 3 mph /  4.8 km/h 88 % 0 in /  0.0 mm
11:02 34.7 °F /  1.5 °C 31.5 °F /  -0.3 °C 30.1 in /  1017.8 hPa North 2 mph /  3.2 km/h 4 mph /  6.4 km/h 88 % 0 in /  0.0 mm
11:07 34.7 °F /  1.5 °C 31.3 °F /  -0.4 °C 30.1 in /  1017.8 hPa NNW 2 mph /  3.2 km/h 4 mph /  6.4 km/h 87 % 0 in /  0.0 mm
11:12 34.9 °F /  1.6 °C 31.6 °F /  -0.2 °C 30.1 in /  1017.8 hPa NNW 2 mph /  3.2 km/h 4 mph /  6.4 km/h 88 % 0 in /  0.0 mm
11:17 35.1 °F /  1.7 °C 31.8 °F /  -0.1 °C 30.1 in /  1017.8 hPa North 1 mph /  1.6 km/h 5 mph /  8.0 km/h 88 % 0 in /  0.0 mm
11:22 35.4 °F /  1.9 °C 32.2 °F /  0.1 °C 30.1 in /  1017.8 hPa North 1 mph /  1.6 km/h 5 mph /  8.0 km/h 88 % 0 in /  0.0 mm
11:27 35.8 °F /  2.1 °C 32.5 °F /  0.3 °C 30.1 in /  1017.8 hPa Calm   5 mph /  8.0 km/h 88 % 0 in /  0.0 mm
11:32 36.1 °F /  2.3 °C 32.7 °F /  0.4 °C 30.1 in /  1017.8 hPa NNE 1 mph /  1.6 km/h 5 mph /  8.0 km/h 87 % 0 in /  0.0 mm
11:42 36.9 °F /  2.7 °C 33.1 °F /  0.6 °C 30.1 in /  1017.5 hPa NE 3 mph /  4.8 km/h 5 mph /  8.0 km/h 86 % 0 in /  0.0 mm
11:47 37.2 °F /  2.9 °C 33.4 °F /  0.8 °C 30.1 in /  1017.5 hPa North 3 mph /  4.8 km/h 5 mph /  8.0 km/h 86 % 0 in /  0.0 mm
11:52 37.9 °F /  3.3 °C 34.2 °F /  1.2 °C 30.1 in /  1017.5 hPa North 4 mph /  6.4 km/h 6 mph /  9.7 km/h 86 % 0 in /  0.0 mm
12:02 38.1 °F /  3.4 °C 34 °F /  1.1 °C 30.1 in /  1017.5 hPa East 1 mph /  1.6 km/h 6 mph /  9.7 km/h 85 % 0 in /  0.0 mm
12:07 38.5 °F /  3.6 °C 34.3 °F /  1.3 °C 30.1 in /  1017.5 hPa NNW 1 mph /  1.6 km/h 6 mph /  9.7 km/h 85 % 0 in /  0.0 mm
12:12 38.5 °F /  3.6 °C 34.2 °F /  1.2 °C 30.1 in /  1017.5 hPa ENE 3 mph /  4.8 km/h 6 mph /  9.7 km/h 84 % 0 in /  0.0 mm
12:17 38.5 °F /  3.6 °C 33.8 °F /  1.0 °C 30.1 in /  1017.5 hPa Calm   7 mph /  11.3 km/h 83 % 0 in /  0.0 mm
12:22 38.7 °F /  3.7 °C 34.5 °F /  1.4 °C 30.1 in /  1017.5 hPa NNE 5 mph /  8.0 km/h 7 mph /  11.3 km/h 85 % 0 in /  0.0 mm
12:27 38.5 °F /  3.6 °C 33.8 °F /  1.0 °C 30.1 in /  1017.5 hPa North 5 mph /  8.0 km/h 7 mph /  11.3 km/h 83 % 0 in /  0.0 mm
12:32 38.5 °F /  3.6 °C 34.2 °F /  1.2 °C 30.1 in /  1017.5 hPa Calm   7 mph /  11.3 km/h 84 % 0 in /  0.0 mm
12:37 38.7 °F /  3.7 °C 34.2 °F /  1.2 °C 30.1 in /  1017.5 hPa NNE 5 mph /  8.0 km/h 8 mph /  12.9 km/h 84 % 0 in /  0.0 mm
12:42 38.7 °F /  3.7 °C 34.2 °F /  1.2 °C 30.1 in /  1017.5 hPa NE 4 mph /  6.4 km/h 7 mph /  11.3 km/h 84 % 0 in /  0.0 mm
12:47 38.7 °F /  3.7 °C 34.2 °F /  1.2 °C 30 in /  1017.2 hPa Calm   7 mph /  11.3 km/h 84 % 0 in /  0.0 mm
12:52 39 °F /  3.9 °C 34.3 °F /  1.3 °C 30 in /  1017.2 hPa NNW 1 mph /  1.6 km/h 7 mph /  11.3 km/h 83 % 0 in /  0.0 mm
12:57 39.6 °F /  4.2 °C 34.9 °F /  1.6 °C 30.1 in /  1017.5 hPa North 1 mph /  1.6 km/h 5 mph /  8.0 km/h 83 % 0 in /  0.0 mm
13:02 39.6 °F /  4.2 °C 34.5 °F /  1.4 °C 30.1 in /  1017.5 hPa Calm   6 mph /  9.7 km/h 82 % 0 in /  0.0 mm
13:07 39.6 °F /  4.2 °C 35.1 °F /  1.7 °C 30.1 in /  1017.5 hPa NW 2 mph /  3.2 km/h 6 mph /  9.7 km/h 84 % 0 in /  0.0 mm
13:12 39.7 °F /  4.3 °C 34.7 °F /  1.5 °C 30.1 in /  1017.5 hPa North 2 mph /  3.2 km/h 6 mph /  9.7 km/h 82 % 0 in /  0.0 mm
13:17 39.6 °F /  4.2 °C 34.5 °F /  1.4 °C 30.1 in /  1017.5 hPa NNW 4 mph /  6.4 km/h 4 mph /  6.4 km/h 82 % 0 in /  0.0 mm
13:22 39.7 °F /  4.3 °C 35.1 °F /  1.7 °C 30.1 in /  1017.5 hPa WNW 2 mph /  3.2 km/h 4 mph /  6.4 km/h 83 % 0 in /  0.0 mm
13:27 39.9 °F /  4.4 °C 34.9 °F /  1.6 °C 30.1 in /  1017.5 hPa NW 3 mph /  4.8 km/h 4 mph /  6.4 km/h 82 % 0 in /  0.0 mm
13:37 39.9 °F /  4.4 °C 34.9 °F /  1.6 °C 30 in /  1017.2 hPa NNE 3 mph /  4.8 km/h 6 mph /  9.7 km/h 82 % 0 in /  0.0 mm
13:42 39.9 °F /  4.4 °C 34.9 °F /  1.6 °C 30 in /  1017.2 hPa NNW 2 mph /  3.2 km/h 5 mph /  8.0 km/h 82 % 0 in /  0.0 mm
13:47 39.9 °F /  4.4 °C 34.5 °F /  1.4 °C 30 in /  1017.2 hPa Calm   5 mph /  8.0 km/h 81 % 0 in /  0.0 mm
13:52 39.9 °F /  4.4 °C 34.9 °F /  1.6 °C 30 in /  1017.2 hPa NE 8 mph /  12.9 km/h 8 mph /  12.9 km/h 82 % 0 in /  0.0 mm
13:57 39.7 °F /  4.3 °C 35.1 °F /  1.7 °C 30 in /  1017.2 hPa NNW 6 mph /  9.7 km/h 10 mph /  16.1 km/h 83 % 0 in /  0.0 mm
14:02 39.7 °F /  4.3 °C 34.7 °F /  1.5 °C 30 in /  1017.2 hPa NNW 6 mph /  9.7 km/h 10 mph /  16.1 km/h 82 % 0 in /  0.0 mm
14:07 39.9 °F /  4.4 °C 35.2 °F /  1.8 °C 30 in /  1016.8 hPa NW 2 mph /  3.2 km/h 10 mph /  16.1 km/h 83 % 0 in /  0.0 mm
14:17 40.3 °F /  4.6 °C 35.2 °F /  1.8 °C 30 in /  1016.8 hPa ENE 1 mph /  1.6 km/h 10 mph /  16.1 km/h 82 % 0 in /  0.0 mm
14:22 40.3 °F /  4.6 °C 34.9 °F /  1.6 °C 30 in /  1016.8 hPa NE 5 mph /  8.0 km/h 10 mph /  16.1 km/h 81 % 0 in /  0.0 mm
14:27 40.3 °F /  4.6 °C 35.2 °F /  1.8 °C 30 in /  1016.8 hPa NE 6 mph /  9.7 km/h 10 mph /  16.1 km/h 82 % 0 in /  0.0 mm
14:32 40.3 °F /  4.6 °C 35.2 °F /  1.8 °C 30 in /  1016.8 hPa NNE 6 mph /  9.7 km/h 10 mph /  16.1 km/h 82 % 0 in /  0.0 mm
14:37 40.3 °F /  4.6 °C 35.2 °F /  1.8 °C 30 in /  1016.8 hPa North 2 mph /  3.2 km/h 10 mph /  16.1 km/h 82 % 0 in /  0.0 mm
14:42 40.5 °F /  4.7 °C 35.4 °F /  1.9 °C 30 in /  1016.8 hPa ENE 1 mph /  1.6 km/h 9 mph /  14.5 km/h 82 % 0 in /  0.0 mm
14:47 40.3 °F /  4.6 °C 34.9 °F /  1.6 °C 30 in /  1016.8 hPa NNE 6 mph /  9.7 km/h 9 mph /  14.5 km/h 81 % 0 in /  0.0 mm
14:52 40.1 °F /  4.5 °C 35.1 °F /  1.7 °C 30 in /  1016.8 hPa NNW 2 mph /  3.2 km/h 7 mph /  11.3 km/h 82 % 0 in /  0.0 mm
14:57 40.3 °F /  4.6 °C 35.2 °F /  1.8 °C 30 in /  1016.8 hPa North 3 mph /  4.8 km/h 9 mph /  14.5 km/h 82 % 0 in /  0.0 mm
15:02 40.3 °F /  4.6 °C 35.6 °F /  2.0 °C 30 in /  1016.8 hPa NNE 7 mph /  11.3 km/h 9 mph /  14.5 km/h 83 % 0 in /  0.0 mm
15:07 40.3 °F /  4.6 °C 34.9 °F /  1.6 °C 30 in /  1016.8 hPa North 4 mph /  6.4 km/h 8 mph /  12.9 km/h 81 % 0 in /  0.0 mm
15:12 40.3 °F /  4.6 °C 35.2 °F /  1.8 °C 30 in /  1017.2 hPa North 3 mph /  4.8 km/h 8 mph /  12.9 km/h 82 % 0 in /  0.0 mm
15:17 40.3 °F /  4.6 °C 35.2 °F /  1.8 °C 30 in /  1017.2 hPa NNE 3 mph /  4.8 km/h 7 mph /  11.3 km/h 82 % 0 in /  0.0 mm
15:22 40.1 °F /  4.5 °C 35.1 °F /  1.7 °C 30 in /  1017.2 hPa ENE 1 mph /  1.6 km/h 8 mph /  12.9 km/h 82 % 0 in /  0.0 mm
15:27 39.9 °F /  4.4 °C 34.9 °F /  1.6 °C 30 in /  1017.2 hPa NE 5 mph /  8.0 km/h 8 mph /  12.9 km/h 82 % 0 in /  0.0 mm
15:32 39.9 °F /  4.4 °C 35.4 °F /  1.9 °C 30 in /  1016.8 hPa Calm   8 mph /  12.9 km/h 84 % 0 in /  0.0 mm
15:37 39.7 °F /  4.3 °C 35.1 °F /  1.7 °C 30 in /  1017.2 hPa North 3 mph /  4.8 km/h 8 mph /  12.9 km/h 83 % 0 in /  0.0 mm
15:42 39.7 °F /  4.3 °C 35.1 °F /  1.7 °C 30 in /  1017.2 hPa NNE 3 mph /  4.8 km/h 9 mph /  14.5 km/h 83 % 0 in /  0.0 mm
15:47 39.9 °F /  4.4 °C 35.4 °F /  1.9 °C 30 in /  1017.2 hPa NNW 3 mph /  4.8 km/h 9 mph /  14.5 km/h 84 % 0 in /  0.0 mm
15:52 39.7 °F /  4.3 °C 35.1 °F /  1.7 °C 30 in /  1017.2 hPa NNW 5 mph /  8.0 km/h 8 mph /  12.9 km/h 83 % 0 in /  0.0 mm
15:57 39.7 °F /  4.3 °C 35.1 °F /  1.7 °C 30 in /  1017.2 hPa North 6 mph /  9.7 km/h 9 mph /  14.5 km/h 83 % 0 in /  0.0 mm
16:02 39.6 °F /  4.2 °C 34.9 °F /  1.6 °C 30 in /  1016.8 hPa NNW 5 mph /  8.0 km/h 9 mph /  14.5 km/h 83 % 0 in /  0.0 mm
16:07 39.7 °F /  4.3 °C 35.2 °F /  1.8 °C 30 in /  1017.2 hPa North 3 mph /  4.8 km/h 9 mph /  14.5 km/h 84 % 0 in /  0.0 mm
16:17 39.6 °F /  4.2 °C 34.9 °F /  1.6 °C 30 in /  1017.2 hPa NNE 2 mph /  3.2 km/h 8 mph /  12.9 km/h 83 % 0 in /  0.0 mm
16:22 39.7 °F /  4.3 °C 35.2 °F /  1.8 °C 30 in /  1016.8 hPa NNW 3 mph /  4.8 km/h 8 mph /  12.9 km/h 84 % 0 in /  0.0 mm
16:27 39.9 °F /  4.4 °C 35.4 °F /  1.9 °C 30 in /  1017.2 hPa NW 3 mph /  4.8 km/h 8 mph /  12.9 km/h 84 % 0 in /  0.0 mm
16:32 39.7 °F /  4.3 °C 35.1 °F /  1.7 °C 30 in /  1016.8 hPa North 5 mph /  8.0 km/h 8 mph /  12.9 km/h 83 % 0 in /  0.0 mm
16:42 39.7 °F /  4.3 °C 35.2 °F /  1.8 °C 30 in /  1017.2 hPa NNW 4 mph /  6.4 km/h 8 mph /  12.9 km/h 84 % 0 in /  0.0 mm
16:47 39.6 °F /  4.2 °C 34.9 °F /  1.6 °C 30 in /  1017.2 hPa NNW 3 mph /  4.8 km/h 8 mph /  12.9 km/h 83 % 0 in /  0.0 mm
16:52 39.6 °F /  4.2 °C 35.1 °F /  1.7 °C 30 in /  1017.2 hPa NW 5 mph /  8.0 km/h 8 mph /  12.9 km/h 84 % 0 in /  0.0 mm
16:57 39.4 °F /  4.1 °C 34.9 °F /  1.6 °C 30 in /  1017.2 hPa North 4 mph /  6.4 km/h 8 mph /  12.9 km/h 84 % 0 in /  0.0 mm
17:02 39.4 °F /  4.1 °C 34.9 °F /  1.6 °C 30 in /  1017.2 hPa NNW 2 mph /  3.2 km/h 10 mph /  16.1 km/h 84 % 0 in /  0.0 mm
17:07 39 °F /  3.9 °C 34.5 °F /  1.4 °C 30 in /  1017.2 hPa WNW 5 mph /  8.0 km/h 10 mph /  16.1 km/h 84 % 0 in /  0.0 mm
17:12 39 °F /  3.9 °C 34.9 °F /  1.6 °C 30.1 in /  1017.5 hPa NNE 8 mph /  12.9 km/h 10 mph /  16.1 km/h 85 % 0 in /  0.0 mm
17:17 38.8 °F /  3.8 °C 34.7 °F /  1.5 °C 30 in /  1017.2 hPa NNW 2 mph /  3.2 km/h 10 mph /  16.1 km/h 85 % 0 in /  0.0 mm
17:22 38.8 °F /  3.8 °C 34.7 °F /  1.5 °C 30 in /  1017.2 hPa North 3 mph /  4.8 km/h 10 mph /  16.1 km/h 85 % 0 in /  0.0 mm
17:27 38.7 °F /  3.7 °C 34.5 °F /  1.4 °C 30.1 in /  1017.5 hPa North 4 mph /  6.4 km/h 10 mph /  16.1 km/h 85 % 0 in /  0.0 mm
17:32 38.5 °F /  3.6 °C 34.7 °F /  1.5 °C 30.1 in /  1017.5 hPa North 3 mph /  4.8 km/h 10 mph /  16.1 km/h 86 % 0 in /  0.0 mm
17:37 38.5 °F /  3.6 °C 34.7 °F /  1.5 °C 30.1 in /  1017.5 hPa North 4 mph /  6.4 km/h 10 mph /  16.1 km/h 86 % 0 in /  0.0 mm
17:42 38.1 °F /  3.4 °C 34.3 °F /  1.3 °C 30.1 in /  1017.5 hPa NNW 4 mph /  6.4 km/h 10 mph /  16.1 km/h 86 % 0 in /  0.0 mm
17:52 37.9 °F /  3.3 °C 34.2 °F /  1.2 °C 30.1 in /  1017.5 hPa NNE 6 mph /  9.7 km/h 10 mph /  16.1 km/h 86 % 0 in /  0.0 mm
17:57 37.8 °F /  3.2 °C 34 °F /  1.1 °C 30.1 in /  1017.5 hPa NW 2 mph /  3.2 km/h 10 mph /  16.1 km/h 86 % 0 in /  0.0 mm
18:02 37.8 °F /  3.2 °C 34.2 °F /  1.2 °C 30.1 in /  1017.5 hPa NNE 2 mph /  3.2 km/h 9 mph /  14.5 km/h 87 % 0 in /  0.0 mm
18:07 37.6 °F /  3.1 °C 34 °F /  1.1 °C 30.1 in /  1017.5 hPa ENE 1 mph /  1.6 km/h 8 mph /  12.9 km/h 87 % 0 in /  0.0 mm
18:12 37.4 °F /  3.0 °C 33.8 °F /  1.0 °C 30.1 in /  1017.5 hPa NNW 5 mph /  8.0 km/h 8 mph /  12.9 km/h 87 % 0 in /  0.0 mm
18:17 37.2 °F /  2.9 °C 33.8 °F /  1.0 °C 30.1 in /  1017.5 hPa North 2 mph /  3.2 km/h 8 mph /  12.9 km/h 87 % 0 in /  0.0 mm
18:22 37 °F /  2.8 °C 33.8 °F /  1.0 °C 30.1 in /  1017.8 hPa NNW 2 mph /  3.2 km/h 8 mph /  12.9 km/h 88 % 0 in /  0.0 mm
18:27 36.9 °F /  2.7 °C 33.6 °F /  0.9 °C 30.1 in /  1017.8 hPa NNE 1 mph /  1.6 km/h 7 mph /  11.3 km/h 88 % 0 in /  0.0 mm
18:32 36.9 °F /  2.7 °C 34 °F /  1.1 °C 30.1 in /  1017.8 hPa NNW 4 mph /  6.4 km/h 7 mph /  11.3 km/h 89 % 0 in /  0.0 mm
18:37 36.7 °F /  2.6 °C 33.8 °F /  1.0 °C 30.1 in /  1017.8 hPa NW 3 mph /  4.8 km/h 7 mph /  11.3 km/h 89 % 0 in /  0.0 mm
18:42 36.7 °F /  2.6 °C 33.8 °F /  1.0 °C 30.1 in /  1017.8 hPa NNW 3 mph /  4.8 km/h 7 mph /  11.3 km/h 89 % 0 in /  0.0 mm
18:47 36.7 °F /  2.6 °C 33.8 °F /  1.0 °C 30.1 in /  1017.8 hPa North 3 mph /  4.8 km/h 7 mph /  11.3 km/h 89 % 0 in /  0.0 mm
18:52 36.7 °F /  2.6 °C 33.8 °F /  1.0 °C 30.1 in /  1017.8 hPa NNW 5 mph /  8.0 km/h 9 mph /  14.5 km/h 89 % 0 in /  0.0 mm
18:57 36.7 °F /  2.6 °C 33.8 °F /  1.0 °C 30.1 in /  1017.8 hPa NW 1 mph /  1.6 km/h 9 mph /  14.5 km/h 89 % 0 in /  0.0 mm
19:02 36.5 °F /  2.5 °C 33.6 °F /  0.9 °C 30.1 in /  1017.8 hPa NNW 5 mph /  8.0 km/h 9 mph /  14.5 km/h 89 % 0 in /  0.0 mm
19:07 36.3 °F /  2.4 °C 33.4 °F /  0.8 °C 30.1 in /  1017.8 hPa NNW 3 mph /  4.8 km/h 9 mph /  14.5 km/h 89 % 0 in /  0.0 mm
19:12 36.3 °F /  2.4 °C 33.4 °F /  0.8 °C 30.1 in /  1017.8 hPa North 3 mph /  4.8 km/h 9 mph /  14.5 km/h 89 % 0 in /  0.0 mm
19:17 36.3 °F /  2.4 °C 33.4 °F /  0.8 °C 30.1 in /  1017.8 hPa NNW 3 mph /  4.8 km/h 7 mph /  11.3 km/h 89 % 0 in /  0.0 mm
19:22 36.3 °F /  2.4 °C 33.4 °F /  0.8 °C 30.1 in /  1017.8 hPa NNW 3 mph /  4.8 km/h 7 mph /  11.3 km/h 89 % 0 in /  0.0 mm
19:27 36.3 °F /  2.4 °C 33.6 °F /  0.9 °C 30.1 in /  1017.8 hPa NW 1 mph /  1.6 km/h 7 mph /  11.3 km/h 90 % 0 in /  0.0 mm
19:32 36.3 °F /  2.4 °C 33.6 °F /  0.9 °C 30.1 in /  1017.8 hPa NW 3 mph /  4.8 km/h 7 mph /  11.3 km/h 90 % 0 in /  0.0 mm
19:37 36.3 °F /  2.4 °C 33.6 °F /  0.9 °C 30.1 in /  1017.8 hPa NNE 4 mph /  6.4 km/h 7 mph /  11.3 km/h 90 % 0 in /  0.0 mm
19:42 36.3 °F /  2.4 °C 33.6 °F /  0.9 °C 30.1 in /  1017.8 hPa NW 3 mph /  4.8 km/h 7 mph /  11.3 km/h 90 % 0 in /  0.0 mm
19:52 36.1 °F /  2.3 °C 33.4 °F /  0.8 °C 30.1 in /  1017.8 hPa NNW 2 mph /  3.2 km/h 8 mph /  12.9 km/h 90 % 0 in /  0.0 mm
19:57 36 °F /  2.2 °C 33.3 °F /  0.7 °C 30.1 in /  1017.8 hPa NNE 4 mph /  6.4 km/h 8 mph /  12.9 km/h 90 % 0 in /  0.0 mm
20:02 36 °F /  2.2 °C 33.3 °F /  0.7 °C 30.1 in /  1018.2 hPa NNW 2 mph /  3.2 km/h 8 mph /  12.9 km/h 90 % 0 in /  0.0 mm
20:07 35.8 °F /  2.1 °C 33.1 °F /  0.6 °C 30.1 in /  1018.2 hPa NNW 2 mph /  3.2 km/h 7 mph /  11.3 km/h 90 % 0 in /  0.0 mm
20:12 35.8 °F /  2.1 °C 33.1 °F /  0.6 °C 30.1 in /  1017.8 hPa North 3 mph /  4.8 km/h 7 mph /  11.3 km/h 90 % 0 in /  0.0 mm
20:17 35.6 °F /  2.0 °C 33.3 °F /  0.7 °C 30.1 in /  1018.2 hPa NNW 4 mph /  6.4 km/h 9 mph /  14.5 km/h 91 % 0 in /  0.0 mm
20:22 35.4 °F /  1.9 °C 33.1 °F /  0.6 °C 30.1 in /  1017.8 hPa NW 3 mph /  4.8 km/h 9 mph /  14.5 km/h 91 % 0 in /  0.0 mm
20:27 35.4 °F /  1.9 °C 33.1 °F /  0.6 °C 30.1 in /  1018.2 hPa NW 3 mph /  4.8 km/h 9 mph /  14.5 km/h 91 % 0 in /  0.0 mm
20:37 35.1 °F /  1.7 °C 32.7 °F /  0.4 °C 30.1 in /  1018.2 hPa NW 3 mph /  4.8 km/h 7 mph /  11.3 km/h 91 % 0 in /  0.0 mm
20:42 35.1 °F /  1.7 °C 32.7 °F /  0.4 °C 30.1 in /  1018.2 hPa NNW 3 mph /  4.8 km/h 5 mph /  8.0 km/h 91 % 0 in /  0.0 mm
20:47 35.1 °F /  1.7 °C 32.7 °F /  0.4 °C 30.1 in /  1017.8 hPa NW 2 mph /  3.2 km/h 5 mph /  8.0 km/h 91 % 0 in /  0.0 mm
20:57 34.7 °F /  1.5 °C 32.4 °F /  0.2 °C 30.1 in /  1018.2 hPa North 2 mph /  3.2 km/h 5 mph /  8.0 km/h 91 % 0 in /  0.0 mm
21:02 34.5 °F /  1.4 °C 32.4 °F /  0.2 °C 30.1 in /  1017.8 hPa NNW 1 mph /  1.6 km/h 5 mph /  8.0 km/h 92 % 0 in /  0.0 mm
21:12 34.5 °F /  1.4 °C 32.4 °F /  0.2 °C 30.1 in /  1017.8 hPa NNW 1 mph /  1.6 km/h 5 mph /  8.0 km/h 92 % 0 in /  0.0 mm
21:17 34.5 °F /  1.4 °C 32.4 °F /  0.2 °C 30.1 in /  1017.8 hPa NNW 2 mph /  3.2 km/h 5 mph /  8.0 km/h 92 % 0 in /  0.0 mm
21:22 34.5 °F /  1.4 °C 32.4 °F /  0.2 °C 30.1 in /  1018.2 hPa NNW 2 mph /  3.2 km/h 5 mph /  8.0 km/h 92 % 0 in /  0.0 mm
21:32 34.7 °F /  1.5 °C 32.5 °F /  0.3 °C 30.1 in /  1018.2 hPa NW 1 mph /  1.6 km/h 8 mph /  12.9 km/h 92 % 0 in /  0.0 mm
21:37 34.7 °F /  1.5 °C 32.5 °F /  0.3 °C 30.1 in /  1017.8 hPa NNW 3 mph /  4.8 km/h 8 mph /  12.9 km/h 92 % 0 in /  0.0 mm
21:42 34.9 °F /  1.6 °C 32.7 °F /  0.4 °C 30.1 in /  1018.2 hPa NW 5 mph /  8.0 km/h 8 mph /  12.9 km/h 92 % 0 in /  0.0 mm
21:47 34.9 °F /  1.6 °C 32.7 °F /  0.4 °C 30.1 in /  1018.2 hPa NNW 4 mph /  6.4 km/h 8 mph /  12.9 km/h 92 % 0 in /  0.0 mm
21:57 34.9 °F /  1.6 °C 32.7 °F /  0.4 °C 30.1 in /  1018.2 hPa NNW 5 mph /  8.0 km/h 8 mph /  12.9 km/h 92 % 0 in /  0.0 mm
22:02 34.9 °F /  1.6 °C 32.7 °F /  0.4 °C 30.1 in /  1018.2 hPa North 6 mph /  9.7 km/h 10 mph /  16.1 km/h 92 % 0 in /  0.0 mm
22:07 35.1 °F /  1.7 °C 32.9 °F /  0.5 °C 30.1 in /  1018.2 hPa NNW 6 mph /  9.7 km/h 10 mph /  16.1 km/h 92 % 0 in /  0.0 mm
22:12 35.1 °F /  1.7 °C 32.9 °F /  0.5 °C 30.1 in /  1018.2 hPa North 5 mph /  8.0 km/h 10 mph /  16.1 km/h 92 % 0 in /  0.0 mm
22:17 34.9 °F /  1.6 °C 32.7 °F /  0.4 °C 30.1 in /  1018.2 hPa NNW 5 mph /  8.0 km/h 8 mph /  12.9 km/h 92 % 0 in /  0.0 mm
22:22 34.9 °F /  1.6 °C 32.7 °F /  0.4 °C 30.1 in /  1018.2 hPa North 6 mph /  9.7 km/h 8 mph /  12.9 km/h 92 % 0 in /  0.0 mm
22:32 34.9 °F /  1.6 °C 32.7 °F /  0.4 °C 30.1 in /  1018.5 hPa North 3 mph /  4.8 km/h 9 mph /  14.5 km/h 92 % 0 in /  0.0 mm
22:37 34.9 °F /  1.6 °C 32.7 °F /  0.4 °C 30.1 in /  1018.5 hPa NW 4 mph /  6.4 km/h 9 mph /  14.5 km/h 92 % 0 in /  0.0 mm
22:42 34.9 °F /  1.6 °C 32.7 °F /  0.4 °C 30.1 in /  1018.5 hPa NW 5 mph /  8.0 km/h 9 mph /  14.5 km/h 92 % 0 in /  0.0 mm
22:47 34.9 °F /  1.6 °C 32.7 °F /  0.4 °C 30.1 in /  1018.5 hPa NNW 4 mph /  6.4 km/h 9 mph /  14.5 km/h 92 % 0 in /  0.0 mm
22:52 34.9 °F /  1.6 °C 32.7 °F /  0.4 °C 30.1 in /  1018.5 hPa NNW 3 mph /  4.8 km/h 9 mph /  14.5 km/h 92 % 0 in /  0.0 mm
22:57 34.9 °F /  1.6 °C 32.5 °F /  0.3 °C 30.1 in /  1018.5 hPa NNE 5 mph /  8.0 km/h 9 mph /  14.5 km/h 91 % 0 in /  0.0 mm
23:02 34.9 °F /  1.6 °C 32.5 °F /  0.3 °C 30.1 in /  1018.8 hPa NNW 2 mph /  3.2 km/h 8 mph /  12.9 km/h 91 % 0 in /  0.0 mm
23:07 34.9 °F /  1.6 °C 32.5 °F /  0.3 °C 30.1 in /  1018.5 hPa NNW 3 mph /  4.8 km/h 8 mph /  12.9 km/h 91 % 0 in /  0.0 mm
23:12 34.9 °F /  1.6 °C 32.5 °F /  0.3 °C 30.1 in /  1018.5 hPa NNE 3 mph /  4.8 km/h 8 mph /  12.9 km/h 91 % 0 in /  0.0 mm
23:17 34.9 °F /  1.6 °C 32.5 °F /  0.3 °C 30.1 in /  1018.5 hPa NNW 5 mph /  8.0 km/h 9 mph /  14.5 km/h 91 % 0 in /  0.0 mm
23:22 34.9 °F /  1.6 °C 32.5 °F /  0.3 °C 30.1 in /  1018.5 hPa NNW 2 mph /  3.2 km/h 9 mph /  14.5 km/h 91 % 0 in /  0.0 mm
23:32 34.9 °F /  1.6 °C 32.5 °F /  0.3 °C 30.1 in /  1018.8 hPa NNE 4 mph /  6.4 km/h 8 mph /  12.9 km/h 91 % 0 in /  0.0 mm
23:42 34.9 °F /  1.6 °C 32.5 °F /  0.3 °C 30.1 in /  1018.8 hPa NNE 4 mph /  6.4 km/h 7 mph /  11.3 km/h 91 % 0 in /  0.0 mm
23:47 34.9 °F /  1.6 °C 32.5 °F /  0.3 °C 30.1 in /  1018.8 hPa North 3 mph /  4.8 km/h 9 mph /  14.5 km/h 91 % 0 in /  0.0 mm
23:52 34.9 °F /  1.6 °C 32.5 °F /  0.3 °C 30.1 in /  1018.8 hPa NNE 3 mph /  4.8 km/h 9 mph /  14.5 km/h 91 % 0 in /  0.0 mm
23:57 34.9 °F /  1.6 °C 32.5 °F /  0.3 °C 30.1 in /  1018.8 hPa NNW 4 mph /  6.4 km/h 9 mph /  14.5 km/h 91 % 0 in /  0.0 mm
Meteo18
Compliments of Weather Underground - 4 mb

Script developed by  Jim McMurry - jmcmurry@mwt.net Adapted for the template by  Wim van der Kuil - Leuven-Template.eu

You find our weather info also at:

European Weather Network

Weather Underground

Equipment we use:

Weather-station
Davis Vue

Weather-program
Meteohub

Weather-server
Raspberry PI 2 B+

Provider
1 and 1

Davis Vue

Meteohub

Raspberry PI 2 B+

1 and 1